createdAt,value
2019-05-18T00:00:39.110Z,94754.89
2019-05-18T00:01:41.946Z,94754.89
2019-05-18T00:02:45.072Z,94754.89
2019-05-18T00:03:47.801Z,94756.74
2019-05-18T00:04:50.922Z,94754.89
2019-05-18T00:05:53.668Z,94759.92
2019-05-18T00:06:56.842Z,94756.23
2019-05-18T00:07:59.585Z,94754.60
2019-05-18T00:09:02.740Z,94756.23
2019-05-18T00:10:05.699Z,94750.61
2019-05-18T00:11:08.834Z,94749.37
2019-05-18T00:12:11.633Z,94748.05
2019-05-18T00:13:14.777Z,94754.52
2019-05-18T00:14:17.539Z,94751.23
2019-05-18T00:15:20.680Z,94753.56
2019-05-18T00:16:23.428Z,94753.08
2019-05-18T00:17:26.609Z,94760.03
2019-05-18T00:18:29.374Z,94757.36
2019-05-18T00:19:32.521Z,94760.22
2019-05-18T00:20:35.264Z,94759.21
2019-05-18T00:21:38.388Z,94757.06
2019-05-18T00:22:41.193Z,94760.84
2019-05-18T00:23:44.326Z,94756.55
2019-05-18T00:24:47.088Z,94757.36
2019-05-18T00:25:50.329Z,94753.89
2019-05-18T00:26:53.098Z,94756.55
2019-05-18T00:27:56.338Z,94747.02
2019-05-18T00:28:59.099Z,94751.75
2019-05-18T00:30:02.304Z,94744.58
2019-05-18T00:31:05.059Z,94748.05
2019-05-18T00:32:08.260Z,94750.20
2019-05-18T00:33:11.022Z,94741.91
2019-05-18T00:34:14.358Z,94741.91
2019-05-18T00:35:17.125Z,94750.41
2019-05-18T00:36:20.366Z,94750.71
2019-05-18T00:37:23.129Z,94746.91
2019-05-18T00:38:26.290Z,94754.19
2019-05-18T00:39:29.065Z,94754.89
2019-05-18T00:40:32.194Z,94753.89
2019-05-18T00:41:34.965Z,94753.38
2019-05-18T00:42:38.108Z,94751.52
2019-05-18T00:43:40.955Z,94756.33
2019-05-18T00:44:44.165Z,94753.56
2019-05-18T00:45:46.933Z,94752.75
2019-05-18T00:46:50.059Z,94752.04
2019-05-18T00:47:52.829Z,94750.91
2019-05-18T00:48:56.053Z,94751.94
2019-05-18T00:49:58.875Z,94754.89
2019-05-18T00:51:02.026Z,94748.98
2019-05-18T00:52:04.940Z,94747.95
2019-05-18T00:53:08.120Z,94747.13
2019-05-18T00:54:10.995Z,94746.32
2019-05-18T00:55:14.483Z,94744.25
2019-05-18T00:56:17.242Z,94738.11
2019-05-18T00:57:20.374Z,94744.77
2019-05-18T00:58:23.134Z,94737.81
2019-05-18T00:59:26.278Z,94741.30
2019-05-18T01:00:29.318Z,94745.58
2019-05-18T01:01:32.455Z,94740.77
2019-05-18T01:02:35.296Z,94743.77
2019-05-18T01:03:38.421Z,94740.58
2019-05-18T01:04:41.304Z,94739.55
2019-05-18T01:05:44.503Z,94738.11
2019-05-18T01:06:47.214Z,94734.94
2019-05-18T01:07:50.348Z,94734.94
2019-05-18T01:08:53.116Z,94735.26
2019-05-18T01:09:56.201Z,94738.92
2019-05-18T01:10:58.912Z,94730.64
2019-05-18T01:12:02.038Z,94736.27
2019-05-18T01:13:04.804Z,94731.45
2019-05-18T01:14:07.949Z,94727.98
2019-05-18T01:15:10.958Z,94726.66
2019-05-18T01:16:14.118Z,94729.02
2019-05-18T01:17:16.882Z,94732.27
2019-05-18T01:18:20.125Z,94729.42
2019-05-18T01:19:22.886Z,94730.35
2019-05-18T01:20:26.153Z,94727.69
2019-05-18T01:21:28.982Z,94729.54
2019-05-18T01:22:32.121Z,94723.18
2019-05-18T01:23:34.887Z,94723.70
2019-05-18T01:24:37.963Z,94726.36
2019-05-18T01:25:40.732Z,94718.37
2019-05-18T01:26:43.869Z,94720.94
2019-05-18T01:27:46.617Z,94723.08
2019-05-18T01:28:49.753Z,94726.55
2019-05-18T01:29:52.565Z,94723.08
2019-05-18T01:30:55.709Z,94727.36
2019-05-18T01:31:58.455Z,94724.41
2019-05-18T01:33:03.210Z,94721.23
2019-05-18T01:34:05.965Z,94722.27
2019-05-18T01:35:09.394Z,94717.56
2019-05-18T01:36:12.307Z,94710.58
2019-05-18T01:37:15.427Z,94715.39
2019-05-18T01:38:18.197Z,94709.25
2019-05-18T01:39:21.359Z,94710.06
2019-05-18T01:40:24.134Z,94706.81
2019-05-18T01:41:27.313Z,94702.82
2019-05-18T01:42:30.275Z,94706.59
2019-05-18T01:43:33.434Z,94704.97
2019-05-18T01:44:36.169Z,94706.30
2019-05-18T01:45:39.307Z,94707.92
2019-05-18T01:46:42.124Z,94709.48
2019-05-18T01:47:45.244Z,94705.48
2019-05-18T01:48:48.056Z,94701.49
2019-05-18T01:49:51.210Z,94706.20
2019-05-18T01:50:53.940Z,94704.16
2019-05-18T01:51:57.211Z,94703.53
2019-05-18T01:53:00.042Z,94697.92
2019-05-18T01:54:03.285Z,94699.25
2019-05-18T01:55:06.437Z,94703.02
2019-05-18T01:56:09.586Z,94698.73
2019-05-18T01:57:12.385Z,94704.87
2019-05-18T01:58:15.598Z,94697.17
2019-05-18T01:59:18.364Z,94697.70
2019-05-18T02:00:21.700Z,94699.25
2019-05-18T02:01:24.481Z,94701.17
2019-05-18T02:02:27.659Z,94696.59
2019-05-18T02:03:30.470Z,94696.97
2019-05-18T02:04:33.550Z,94690.94
2019-05-18T02:05:36.249Z,94692.98
2019-05-18T02:06:39.477Z,94692.47
2019-05-18T02:07:42.248Z,94690.61
2019-05-18T02:08:45.377Z,94687.76
2019-05-18T02:09:48.142Z,94682.44
2019-05-18T02:10:51.279Z,94688.14
2019-05-18T02:11:54.077Z,94686.33
2019-05-18T02:12:57.251Z,94676.50
2019-05-18T02:14:00.063Z,94679.97
2019-05-18T02:15:03.414Z,94683.67
2019-05-18T02:16:06.144Z,94681.81
2019-05-18T02:17:09.302Z,94687.14
2019-05-18T02:18:12.169Z,94683.96
2019-05-18T02:19:15.305Z,94683.67
2019-05-18T02:20:18.659Z,94679.05
2019-05-18T02:21:21.793Z,94674.55
2019-05-18T02:22:24.559Z,94675.88
2019-05-18T02:23:27.801Z,94677.73
2019-05-18T02:24:30.557Z,94681.39
2019-05-18T02:25:33.693Z,94679.05
2019-05-18T02:26:36.486Z,94677.41
2019-05-18T02:27:39.634Z,94682.72
2019-05-18T02:28:42.414Z,94682.23
2019-05-18T02:29:45.544Z,94682.43
2019-05-18T02:30:48.321Z,94681.09
2019-05-18T02:31:51.492Z,94674.16
2019-05-18T02:32:54.323Z,94678.95
2019-05-18T02:33:57.486Z,94681.32
2019-05-18T02:35:00.248Z,94680.48
2019-05-18T02:36:03.399Z,94677.81
2019-05-18T02:37:06.150Z,94682.66
2019-05-18T02:38:16.172Z,94677.00
2019-05-18T02:39:18.946Z,94669.12
2019-05-18T02:40:22.056Z,94672.30
2019-05-18T02:41:24.816Z,94670.45
2019-05-18T02:42:30.701Z,94669.34
2019-05-18T02:43:32.460Z,94669.02
2019-05-18T02:44:35.655Z,94681.32
2019-05-18T02:45:38.412Z,94681.52
2019-05-18T02:46:41.536Z,94680.70
2019-05-18T02:47:44.309Z,94678.04
2019-05-18T02:48:50.119Z,94687.13
2019-05-18T02:49:52.028Z,94684.17
2019-05-18T02:50:55.165Z,94688.17
2019-05-18T02:51:57.924Z,94688.17
2019-05-18T02:53:01.076Z,94690.31
2019-05-18T02:54:03.829Z,94695.85
2019-05-18T02:55:07.402Z,94695.53
2019-05-18T02:56:10.183Z,94697.19
2019-05-18T02:57:13.253Z,94692.77
2019-05-18T02:58:16.021Z,94692.58
2019-05-18T02:59:19.209Z,94692.58
2019-05-18T03:00:22.020Z,94694.61
2019-05-18T03:01:26.209Z,94690.72
2019-05-18T03:02:28.987Z,94693.91
2019-05-18T03:03:32.199Z,94701.07
2019-05-18T03:04:34.956Z,94702.30
2019-05-18T03:05:38.143Z,94697.27
2019-05-18T03:06:40.906Z,94698.60
2019-05-18T03:07:44.039Z,94694.94
2019-05-18T03:08:46.798Z,94695.95
2019-05-18T03:09:49.938Z,94690.63
2019-05-18T03:10:52.705Z,94688.48
2019-05-18T03:11:56.247Z,94694.31
2019-05-18T03:12:59.077Z,94693.80
2019-05-18T03:14:02.437Z,94691.95
2019-05-18T03:15:06.197Z,94694.31
2019-05-18T03:16:09.422Z,94695.64
2019-05-18T03:17:12.177Z,94705.77
2019-05-18T03:18:15.298Z,94704.44
2019-05-18T03:19:18.046Z,94706.29
2019-05-18T03:20:21.199Z,94712.94
2019-05-18T03:21:23.980Z,94711.61
2019-05-18T03:22:27.102Z,94713.95
2019-05-18T03:23:29.853Z,94716.94
2019-05-18T03:24:32.995Z,94715.60
2019-05-18T03:25:35.758Z,94715.28
2019-05-18T03:26:38.881Z,94716.61
2019-05-18T03:27:41.655Z,94718.16
2019-05-18T03:28:44.784Z,94718.45
2019-05-18T03:29:47.553Z,94716.83
2019-05-18T03:30:50.699Z,94714.69
2019-05-18T03:31:53.498Z,94716.02
2019-05-18T03:32:56.670Z,94720.00
2019-05-18T03:33:59.433Z,94718.97
2019-05-18T03:35:02.575Z,94720.00
2019-05-18T03:36:05.407Z,94724.00
2019-05-18T03:37:08.545Z,94727.98
2019-05-18T03:38:11.481Z,94731.65
2019-05-18T03:39:14.610Z,94726.66
2019-05-18T03:40:17.389Z,94728.80
2019-05-18T03:41:20.545Z,94723.67
2019-05-18T03:42:23.366Z,94723.67
2019-05-18T03:43:26.601Z,94727.66
2019-05-18T03:44:29.478Z,94727.17
2019-05-18T03:45:32.612Z,94726.33
2019-05-18T03:46:35.564Z,94724.52
2019-05-18T03:47:38.681Z,94721.52
2019-05-18T03:48:41.445Z,94729.21
2019-05-18T03:49:44.510Z,94727.36
2019-05-18T03:50:47.284Z,94727.98
2019-05-18T03:51:50.455Z,94727.98
2019-05-18T03:52:53.172Z,94721.34
2019-05-18T03:53:56.313Z,94725.20
2019-05-18T03:54:59.081Z,94733.72
2019-05-18T03:56:02.418Z,94731.87
2019-05-18T03:57:05.165Z,94731.46
2019-05-18T03:58:08.360Z,94730.41
2019-05-18T03:59:11.122Z,94729.78
2019-05-18T04:00:14.361Z,94734.65
2019-05-18T04:01:17.091Z,94734.50
2019-05-18T04:02:20.258Z,94735.19
2019-05-18T04:03:23.080Z,94730.56
2019-05-18T04:04:26.212Z,94729.70
2019-05-18T04:05:28.967Z,94732.47
2019-05-18T04:06:32.105Z,94732.47
2019-05-18T04:07:34.879Z,94732.46
2019-05-18T04:08:38.046Z,94729.41
2019-05-18T04:09:40.814Z,94733.17
2019-05-18T04:10:44.039Z,94733.29
2019-05-18T04:11:46.826Z,94737.39
2019-05-18T04:12:49.953Z,94733.17
2019-05-18T04:13:52.701Z,94735.72
2019-05-18T04:14:55.879Z,94739.45
2019-05-18T04:15:58.672Z,94733.63
2019-05-18T04:17:01.728Z,94732.94
2019-05-18T04:18:04.488Z,94733.52
2019-05-18T04:19:07.665Z,94730.58
2019-05-18T04:20:10.520Z,94726.97
2019-05-18T04:21:13.642Z,94728.63
2019-05-18T04:22:16.400Z,94730.07
2019-05-18T04:23:19.574Z,94726.70
2019-05-18T04:24:22.310Z,94727.39
2019-05-18T04:25:25.564Z,94732.09
2019-05-18T04:26:28.439Z,94729.50
2019-05-18T04:27:31.638Z,94731.34
2019-05-18T04:28:34.393Z,94733.75
2019-05-18T04:29:37.685Z,94736.02
2019-05-18T04:30:40.437Z,94733.98
2019-05-18T04:31:43.569Z,94735.28
2019-05-18T04:32:46.330Z,94738.09
2019-05-18T04:33:49.588Z,94734.34
2019-05-18T04:34:52.377Z,94736.94
2019-05-18T04:35:55.502Z,94737.30
2019-05-18T04:36:58.271Z,94735.69
2019-05-18T04:38:01.403Z,94738.97
2019-05-18T04:39:05.966Z,94741.63
2019-05-18T04:40:09.114Z,94743.59
2019-05-18T04:41:11.869Z,94744.40
2019-05-18T04:42:15.007Z,94751.97
2019-05-18T04:43:17.755Z,94753.41
2019-05-18T04:44:20.877Z,94754.03
2019-05-18T04:45:23.776Z,94759.43
2019-05-18T04:46:26.829Z,94753.62
2019-05-18T04:47:29.590Z,94754.74
2019-05-18T04:48:32.734Z,94756.70
2019-05-18T04:49:35.493Z,94755.88
2019-05-18T04:50:38.728Z,94752.19
2019-05-18T04:51:41.531Z,94751.16
2019-05-18T04:52:44.666Z,94750.16
2019-05-18T04:53:47.355Z,94754.77
2019-05-18T04:54:50.491Z,94753.44
2019-05-18T04:55:53.304Z,94757.02
2019-05-18T04:56:56.457Z,94757.95
2019-05-18T04:57:59.219Z,94753.44
2019-05-18T04:59:02.430Z,94755.91
2019-05-18T05:00:06.895Z,94754.08
2019-05-18T05:01:11.071Z,94753.97
2019-05-18T05:02:13.910Z,94751.01
2019-05-18T05:03:17.040Z,94742.41
2019-05-18T05:04:21.284Z,94753.75
2019-05-18T05:05:24.432Z,94753.75
2019-05-18T05:06:27.241Z,94747.63
2019-05-18T05:07:30.447Z,94755.89
2019-05-18T05:08:33.228Z,94759.41
2019-05-18T05:09:36.368Z,94753.55
2019-05-18T05:10:39.130Z,94758.79
2019-05-18T05:11:42.349Z,94756.64
2019-05-18T05:12:45.158Z,94755.90
2019-05-18T05:13:48.200Z,94752.86
2019-05-18T05:14:50.955Z,94749.81
2019-05-18T05:15:54.176Z,94747.73
2019-05-18T05:16:56.991Z,94749.80
2019-05-18T05:18:00.052Z,94752.86
2019-05-18T05:19:02.844Z,94750.81
2019-05-18T05:20:18.660Z,94752.54
2019-05-18T05:21:11.865Z,94753.98
2019-05-18T05:22:15.138Z,94755.60
2019-05-18T05:23:17.919Z,94758.06
2019-05-18T05:24:21.050Z,94758.17
2019-05-18T05:25:23.800Z,94760.13
2019-05-18T05:26:26.930Z,94764.70
2019-05-18T05:27:29.667Z,94759.60
2019-05-18T05:28:32.799Z,94757.95
2019-05-18T05:29:35.501Z,94759.06
2019-05-18T05:30:38.634Z,94757.94
2019-05-18T05:31:41.454Z,94760.70
2019-05-18T05:32:44.737Z,94764.69
2019-05-18T05:33:47.504Z,94759.07
2019-05-18T05:34:50.696Z,94762.94
2019-05-18T05:35:53.445Z,94759.14
2019-05-18T05:36:56.675Z,94758.30
2019-05-18T05:37:59.473Z,94760.13
2019-05-18T05:39:02.613Z,94753.79
2019-05-18T05:40:06.649Z,94761.55
2019-05-18T05:41:15.878Z,94762.98
2019-05-18T05:42:14.288Z,94763.99
2019-05-18T05:43:17.456Z,94764.09
2019-05-18T05:44:20.322Z,94762.86
2019-05-18T05:45:23.468Z,94760.71
2019-05-18T05:46:26.224Z,94761.42
2019-05-18T05:47:31.312Z,94767.47
2019-05-18T05:48:33.871Z,94762.53
2019-05-18T05:49:37.012Z,94766.04
2019-05-18T05:50:39.771Z,94764.87
2019-05-18T05:51:43.109Z,94760.47
2019-05-18T05:52:45.874Z,94757.34
2019-05-18T05:53:49.097Z,94758.95
2019-05-18T05:54:51.853Z,94765.81
2019-05-18T05:55:54.910Z,94756.05
2019-05-18T05:56:57.672Z,94754.91
2019-05-18T05:58:00.916Z,94759.80
2019-05-18T05:59:03.711Z,94753.95
2019-05-18T06:00:07.112Z,94754.86
2019-05-18T06:01:09.877Z,94756.38
2019-05-18T06:02:13.010Z,94759.70
2019-05-18T06:03:15.768Z,94757.75
2019-05-18T06:04:18.909Z,94757.83
2019-05-18T06:05:21.663Z,94759.78
2019-05-18T06:06:24.791Z,94760.80
2019-05-18T06:07:27.548Z,94755.17
2019-05-18T06:08:30.686Z,94755.98
2019-05-18T06:09:33.493Z,94756.50
2019-05-18T06:10:36.632Z,94756.36
2019-05-18T06:11:39.392Z,94756.88
2019-05-18T06:12:42.546Z,94758.94
2019-05-18T06:13:45.370Z,94754.27
2019-05-18T06:14:48.609Z,94751.28
2019-05-18T06:15:51.380Z,94754.61
2019-05-18T06:16:54.579Z,94757.70
2019-05-18T06:17:57.330Z,94752.05
2019-05-18T06:19:00.537Z,94754.14
2019-05-18T06:20:04.556Z,94753.52
2019-05-18T06:21:07.690Z,94746.97
2019-05-18T06:22:10.553Z,94743.92
2019-05-18T06:23:13.745Z,94747.02
2019-05-18T06:24:16.510Z,94748.58
2019-05-18T06:25:19.705Z,94747.15
2019-05-18T06:26:24.233Z,94748.97
2019-05-18T06:27:27.410Z,94753.30
2019-05-18T06:28:30.166Z,94754.63
2019-05-18T06:29:33.236Z,94759.95
2019-05-18T06:30:36.002Z,94759.01
2019-05-18T06:31:39.121Z,94764.67
2019-05-18T06:32:41.889Z,94760.45
2019-05-18T06:33:44.954Z,94756.97
2019-05-18T06:34:47.722Z,94760.16
2019-05-18T06:35:50.885Z,94763.28
2019-05-18T06:36:55.896Z,94760.58
2019-05-18T06:37:58.557Z,94762.43
2019-05-18T06:39:01.310Z,94766.42
2019-05-18T06:40:07.232Z,94770.63
2019-05-18T06:41:10.023Z,94767.18
2019-05-18T06:42:13.060Z,94771.33
2019-05-18T06:43:15.829Z,94767.43
2019-05-18T06:44:18.984Z,94764.55
2019-05-18T06:45:21.750Z,94767.92
2019-05-18T06:46:24.924Z,94763.38
2019-05-18T06:47:28.551Z,94772.50
2019-05-18T06:48:31.795Z,94765.20
2019-05-18T06:49:34.556Z,94764.97
2019-05-18T06:50:37.676Z,94761.33
2019-05-18T06:51:40.446Z,94760.88
2019-05-18T06:52:43.590Z,94759.66
2019-05-18T06:53:46.339Z,94763.20
2019-05-18T06:54:49.480Z,94757.53
2019-05-18T06:55:54.013Z,94753.49
2019-05-18T06:56:57.187Z,94756.23
2019-05-18T06:58:00.238Z,94756.48
2019-05-18T06:59:03.668Z,94752.05
2019-05-18T07:00:07.098Z,94752.95
2019-05-18T07:01:10.343Z,94757.30
2019-05-18T07:02:13.246Z,94759.90
2019-05-18T07:03:16.443Z,94754.47
2019-05-18T07:04:19.208Z,94753.62
2019-05-18T07:05:22.513Z,94754.56
2019-05-18T07:06:25.262Z,94753.52
2019-05-18T07:07:28.437Z,94750.52
2019-05-18T07:08:31.194Z,94754.17
2019-05-18T07:09:34.324Z,94749.13
2019-05-18T07:10:37.105Z,94755.55
2019-05-18T07:11:40.245Z,94751.84
2019-05-18T07:12:43.037Z,94754.39
2019-05-18T07:13:46.187Z,94756.11
2019-05-18T07:14:48.933Z,94758.25
2019-05-18T07:15:52.069Z,94754.42
2019-05-18T07:16:54.823Z,94758.23
2019-05-18T07:17:57.981Z,94756.45
2019-05-18T07:19:00.733Z,94754.48
2019-05-18T07:20:04.509Z,94753.97
2019-05-18T07:21:21.088Z,94750.05
2019-05-18T07:22:12.036Z,94751.91
2019-05-18T07:23:14.845Z,94746.05
2019-05-18T07:24:18.158Z,94742.27
2019-05-18T07:25:20.915Z,94746.56
2019-05-18T07:26:24.042Z,94743.78
2019-05-18T07:27:26.809Z,94745.11
2019-05-18T07:28:30.011Z,94749.03
2019-05-18T07:29:32.776Z,94748.22
2019-05-18T07:30:35.917Z,94746.91
2019-05-18T07:31:38.678Z,94748.66
2019-05-18T07:32:41.793Z,94747.81
2019-05-18T07:33:44.615Z,94745.23
2019-05-18T07:34:47.786Z,94745.61
2019-05-18T07:35:50.466Z,94750.66
2019-05-18T07:36:53.590Z,94751.73
2019-05-18T07:37:56.609Z,94750.83
2019-05-18T07:38:59.778Z,94749.05
2019-05-18T07:40:02.695Z,94746.83
2019-05-18T07:41:05.794Z,94754.22
2019-05-18T07:42:08.520Z,94750.83
2019-05-18T07:43:11.636Z,94752.73
2019-05-18T07:44:14.412Z,94744.16
2019-05-18T07:45:17.762Z,94743.55
2019-05-18T07:46:20.627Z,94744.59
2019-05-18T07:47:23.725Z,94750.36
2019-05-18T07:48:26.489Z,94744.23
2019-05-18T07:49:29.600Z,94744.84
2019-05-18T07:50:32.362Z,94745.12
2019-05-18T07:51:37.307Z,94744.94
2019-05-18T07:52:39.791Z,94745.12
2019-05-18T07:53:42.919Z,94751.59
2019-05-18T07:54:45.873Z,94749.31
2019-05-18T07:55:49.012Z,94748.36
2019-05-18T07:56:51.771Z,94749.66
2019-05-18T07:57:54.894Z,94753.00
2019-05-18T07:58:57.654Z,94755.84
2019-05-18T08:00:00.897Z,94745.52
2019-05-18T08:01:03.651Z,94740.80
2019-05-18T08:02:06.848Z,94746.39
2019-05-18T08:03:09.699Z,94743.00
2019-05-18T08:04:12.929Z,94745.67
2019-05-18T08:05:15.724Z,94743.52
2019-05-18T08:06:18.858Z,94743.52
2019-05-18T08:07:21.611Z,94744.05
2019-05-18T08:08:24.681Z,94745.47
2019-05-18T08:09:27.441Z,94746.89
2019-05-18T08:10:39.704Z,94749.03
2019-05-18T08:11:42.614Z,94754.20
2019-05-18T08:12:45.796Z,94743.17
2019-05-18T08:13:48.550Z,94743.78
2019-05-18T08:14:51.681Z,94746.53
2019-05-18T08:15:54.454Z,94749.78
2019-05-18T08:16:57.571Z,94749.14
2019-05-18T08:18:01.872Z,94745.75
2019-05-18T08:19:05.037Z,94753.08
2019-05-18T08:20:08.101Z,94747.91
2019-05-18T08:21:11.279Z,94737.95
2019-05-18T08:22:14.021Z,94746.73
2019-05-18T08:23:17.152Z,94736.61
2019-05-18T08:24:19.951Z,94739.36
2019-05-18T08:25:23.051Z,94739.80
2019-05-18T08:26:25.873Z,94740.00
2019-05-18T08:27:28.999Z,94736.88
2019-05-18T08:28:31.913Z,94743.11
2019-05-18T08:29:35.056Z,94740.53
2019-05-18T08:30:37.809Z,94742.75
2019-05-18T08:31:40.892Z,94742.75
2019-05-18T08:32:43.648Z,94740.70
2019-05-18T08:33:46.822Z,94736.89
2019-05-18T08:34:49.600Z,94740.55
2019-05-18T08:35:52.727Z,94738.92
2019-05-18T08:36:55.578Z,94732.77
2019-05-18T08:37:58.821Z,94732.33
2019-05-18T08:39:01.708Z,94727.55
2019-05-18T08:40:07.757Z,94729.85
2019-05-18T08:41:10.514Z,94731.10
2019-05-18T08:42:13.764Z,94725.93
2019-05-18T08:43:16.459Z,94722.53
2019-05-18T08:44:19.602Z,94727.64
2019-05-18T08:45:22.358Z,94723.87
2019-05-18T08:46:25.490Z,94718.53
2019-05-18T08:47:28.344Z,94723.55
2019-05-18T08:48:31.470Z,94711.86
2019-05-18T08:49:34.229Z,94717.36
2019-05-18T08:50:37.358Z,94722.98
2019-05-18T08:51:40.144Z,94717.86
2019-05-18T08:52:43.377Z,94717.36
2019-05-18T08:53:46.159Z,94719.42
2019-05-18T08:54:49.187Z,94711.63
2019-05-18T08:55:51.948Z,94714.09
2019-05-18T08:56:55.013Z,94711.05
2019-05-18T08:57:57.777Z,94714.00
2019-05-18T08:59:00.925Z,94718.21
2019-05-18T09:00:04.533Z,94705.30
2019-05-18T09:01:07.696Z,94711.48
2019-05-18T09:02:10.435Z,94712.88
2019-05-18T09:03:13.582Z,94711.54
2019-05-18T09:04:16.409Z,94712.47
2019-05-18T09:05:19.541Z,94711.33
2019-05-18T09:06:22.312Z,94711.86
2019-05-18T09:07:25.432Z,94709.31
2019-05-18T09:08:28.243Z,94717.23
2019-05-18T09:09:31.382Z,94713.98
2019-05-18T09:10:34.129Z,94714.44
2019-05-18T09:11:37.266Z,94717.05
2019-05-18T09:12:40.026Z,94712.59
2019-05-18T09:13:43.227Z,94712.08
2019-05-18T09:14:46.017Z,94711.34
2019-05-18T09:15:49.151Z,94711.70
2019-05-18T09:16:51.903Z,94714.38
2019-05-18T09:17:55.024Z,94712.75
2019-05-18T09:18:57.848Z,94714.09
2019-05-18T09:20:00.900Z,94708.31
2019-05-18T09:21:03.758Z,94711.27
2019-05-18T09:22:06.919Z,94706.80
2019-05-18T09:23:09.761Z,94704.37
2019-05-18T09:24:12.932Z,94701.18
2019-05-18T09:25:15.705Z,94704.05
2019-05-18T09:26:18.841Z,94705.91
2019-05-18T09:27:21.606Z,94699.48
2019-05-18T09:28:24.760Z,94704.13
2019-05-18T09:29:27.554Z,94695.83
2019-05-18T09:30:30.698Z,94694.17
2019-05-18T09:31:33.461Z,94693.89
2019-05-18T09:32:36.615Z,94690.98
2019-05-18T09:33:39.377Z,94686.08
2019-05-18T09:34:42.546Z,94681.87
2019-05-18T09:35:45.301Z,94684.55
2019-05-18T09:36:48.444Z,94680.83
2019-05-18T09:37:51.187Z,94682.05
2019-05-18T09:38:54.320Z,94678.62
2019-05-18T09:39:57.125Z,94674.03
2019-05-18T09:41:00.259Z,94681.00
2019-05-18T09:42:03.035Z,94678.41
2019-05-18T09:43:06.150Z,94678.49
2019-05-18T09:44:08.911Z,94680.88
2019-05-18T09:45:12.849Z,94674.29
2019-05-18T09:46:15.633Z,94677.33
2019-05-18T09:47:18.667Z,94667.30
2019-05-18T09:48:21.442Z,94666.20
2019-05-18T09:49:24.560Z,94663.45
2019-05-18T09:50:27.360Z,94662.20
2019-05-18T09:51:30.494Z,94653.14
2019-05-18T09:52:44.656Z,94656.70
2019-05-18T09:53:50.697Z,94656.20
2019-05-18T09:54:42.473Z,94658.03
2019-05-18T09:55:45.618Z,94655.69
2019-05-18T09:56:48.392Z,94654.19
2019-05-18T09:57:51.530Z,94654.27
2019-05-18T09:58:54.282Z,94664.42
2019-05-18T09:59:57.418Z,94648.85
2019-05-18T10:01:00.206Z,94657.14
2019-05-18T10:02:03.335Z,94656.09
2019-05-18T10:03:06.089Z,94661.44
2019-05-18T10:04:09.234Z,94660.26
2019-05-18T10:05:12.175Z,94658.11
2019-05-18T10:06:15.458Z,94653.30
2019-05-18T10:07:19.347Z,94651.52
2019-05-18T10:08:22.465Z,94645.20
2019-05-18T10:09:25.564Z,94645.44
2019-05-18T10:10:28.863Z,94642.45
2019-05-18T10:11:38.250Z,94643.75
2019-05-18T10:12:36.494Z,94638.85
2019-05-18T10:13:39.251Z,94640.68
2019-05-18T10:14:42.382Z,94638.77
2019-05-18T10:15:45.266Z,94636.39
2019-05-18T10:16:48.373Z,94634.38
2019-05-18T10:17:51.153Z,94638.38
2019-05-18T10:18:54.298Z,94638.45
2019-05-18T10:19:57.058Z,94637.52
2019-05-18T10:21:00.103Z,94635.21
2019-05-18T10:22:02.953Z,94629.55
2019-05-18T10:23:12.708Z,94637.64
2019-05-18T10:24:10.536Z,94632.75
2019-05-18T10:25:13.870Z,94631.94
2019-05-18T10:26:16.635Z,94633.72
2019-05-18T10:27:19.909Z,94633.44
2019-05-18T10:28:22.689Z,94631.20
2019-05-18T10:29:25.819Z,94634.09
2019-05-18T10:30:28.589Z,94628.22
2019-05-18T10:31:31.707Z,94629.19
2019-05-18T10:32:34.611Z,94624.06
2019-05-18T10:33:37.745Z,94626.66
2019-05-18T10:34:40.565Z,94627.17
2019-05-18T10:35:43.696Z,94619.61
2019-05-18T10:36:46.529Z,94622.00
2019-05-18T10:37:49.677Z,94623.05
2019-05-18T10:38:52.535Z,94622.67
2019-05-18T10:39:55.655Z,94621.50
2019-05-18T10:40:58.413Z,94625.55
2019-05-18T10:42:01.547Z,94617.61
2019-05-18T10:43:04.355Z,94613.69
2019-05-18T10:44:07.488Z,94618.30
2019-05-18T10:45:10.720Z,94614.28
2019-05-18T10:46:13.848Z,94614.58
2019-05-18T10:47:16.602Z,94616.30
2019-05-18T10:48:19.843Z,94623.70
2019-05-18T10:49:24.491Z,94615.62
2019-05-18T10:50:27.382Z,94614.73
2019-05-18T10:51:30.144Z,94617.09
2019-05-18T10:52:33.281Z,94613.69
2019-05-18T10:53:36.057Z,94617.77
2019-05-18T10:54:39.183Z,94614.65
2019-05-18T10:55:42.050Z,94615.46
2019-05-18T10:56:45.184Z,94612.66
2019-05-18T10:57:47.932Z,94612.86
2019-05-18T10:58:51.076Z,94614.20
2019-05-18T10:59:53.832Z,94613.91
2019-05-18T11:00:57.050Z,94608.29
2019-05-18T11:01:59.802Z,94611.77
2019-05-18T11:03:03.212Z,94610.72
2019-05-18T11:04:06.030Z,94607.00
2019-05-18T11:05:10.065Z,94601.66
2019-05-18T11:06:12.859Z,94606.11
2019-05-18T11:07:15.990Z,94603.32
2019-05-18T11:08:18.755Z,94602.12
2019-05-18T11:09:22.034Z,94598.03
2019-05-18T11:10:24.880Z,94595.89
2019-05-18T11:11:28.013Z,94593.95
2019-05-18T11:12:30.769Z,94598.80
2019-05-18T11:13:33.937Z,94597.67
2019-05-18T11:14:36.729Z,94594.72
2019-05-18T11:15:40.001Z,94597.07
2019-05-18T11:16:42.757Z,94596.27
2019-05-18T11:17:45.910Z,94595.45
2019-05-18T11:18:48.686Z,94592.26
2019-05-18T11:19:51.861Z,94594.33
2019-05-18T11:20:54.655Z,94597.00
2019-05-18T11:21:57.791Z,94589.83
2019-05-18T11:23:00.560Z,94588.49
2019-05-18T11:24:03.706Z,94579.56
2019-05-18T11:25:06.827Z,94584.33
2019-05-18T11:26:09.959Z,94577.95
2019-05-18T11:27:12.714Z,94579.28
2019-05-18T11:28:15.865Z,94584.62
2019-05-18T11:29:22.661Z,94577.66
2019-05-18T11:30:24.517Z,94574.98
2019-05-18T11:31:27.277Z,94572.84
2019-05-18T11:32:30.333Z,94569.33
2019-05-18T11:33:33.109Z,94566.37
2019-05-18T11:34:36.232Z,94570.91
2019-05-18T11:35:39.004Z,94561.20
2019-05-18T11:36:42.652Z,94570.22
2019-05-18T11:37:46.675Z,94569.73
2019-05-18T11:38:49.832Z,94566.22
2019-05-18T11:39:52.613Z,94560.59
2019-05-18T11:40:55.831Z,94567.79
2019-05-18T11:41:58.602Z,94566.81
2019-05-18T11:43:01.736Z,94564.14
2019-05-18T11:44:04.574Z,94560.46
2019-05-18T11:45:09.012Z,94562.00
2019-05-18T11:46:11.834Z,94567.55
2019-05-18T11:47:14.982Z,94559.54
2019-05-18T11:48:17.751Z,94567.34
2019-05-18T11:49:20.875Z,94556.88
2019-05-18T11:50:23.954Z,94558.81
2019-05-18T11:51:27.136Z,94555.05
2019-05-18T11:52:30.161Z,94551.53
2019-05-18T11:53:33.417Z,94551.25
2019-05-18T11:54:36.160Z,94557.64
2019-05-18T11:55:39.298Z,94547.69
2019-05-18T11:56:42.114Z,94545.02
2019-05-18T11:57:45.322Z,94542.06
2019-05-18T11:58:48.235Z,94543.90
2019-05-18T11:59:51.363Z,94542.80
2019-05-18T12:00:54.171Z,94543.09
2019-05-18T12:01:57.378Z,94541.47
2019-05-18T12:03:00.133Z,94543.61
2019-05-18T12:04:03.291Z,94535.84
2019-05-18T12:05:07.498Z,94539.61
2019-05-18T12:06:10.636Z,94531.60
2019-05-18T12:07:13.456Z,94535.08
2019-05-18T12:08:16.581Z,94535.08
2019-05-18T12:09:19.331Z,94531.08
2019-05-18T12:10:22.406Z,94529.73
2019-05-18T12:11:25.258Z,94529.73
2019-05-18T12:12:28.609Z,94528.41
2019-05-18T12:13:31.381Z,94529.73
2019-05-18T12:14:34.653Z,94528.20
2019-05-18T12:15:37.485Z,94531.39
2019-05-18T12:16:40.646Z,94525.21
2019-05-18T12:17:43.468Z,94527.67
2019-05-18T12:18:46.588Z,94528.72
2019-05-18T12:19:49.360Z,94527.07
2019-05-18T12:20:52.496Z,94519.88